createdAt,value
2018-06-12T00:01:57.726Z,21.80
2018-06-12T00:04:25.607Z,21.70
2018-06-12T00:06:53.538Z,21.70
2018-06-12T00:09:22.407Z,21.80
2018-06-12T00:11:50.294Z,21.70
2018-06-12T00:14:18.316Z,21.60
2018-06-12T00:16:46.192Z,21.60
2018-06-12T00:21:42.307Z,21.60
2018-06-12T00:24:10.382Z,21.60
2018-06-12T00:26:38.274Z,21.60
2018-06-12T00:31:33.901Z,21.50
2018-06-12T00:36:29.751Z,21.40
2018-06-12T00:38:57.653Z,21.40
2018-06-12T00:41:25.543Z,21.40
2018-06-12T00:43:53.471Z,21.30
2018-06-12T00:46:21.388Z,21.20
2018-06-12T00:48:49.346Z,21.00
2018-06-12T00:51:17.320Z,21.00
2018-06-12T00:53:46.259Z,21.00
2018-06-12T01:01:17.485Z,20.90
2018-06-12T01:03:45.403Z,20.80
2018-06-12T01:06:13.296Z,20.70
2018-06-12T01:08:41.565Z,20.70
2018-06-12T01:11:10.146Z,20.80
2018-06-12T01:13:38.202Z,20.90
2018-06-12T01:16:06.803Z,20.80
2018-06-12T01:18:35.433Z,20.80
2018-06-12T01:21:03.593Z,20.70
2018-06-12T01:23:31.454Z,20.70
2018-06-12T01:25:59.358Z,20.70
2018-06-12T01:28:27.261Z,20.70
2018-06-12T01:30:55.718Z,20.60
2018-06-12T01:35:51.317Z,20.60
2018-06-12T01:38:19.237Z,20.60
2018-06-12T01:40:47.145Z,20.50
2018-06-12T01:43:15.096Z,20.40
2018-06-12T01:45:42.938Z,20.40
2018-06-12T01:50:38.916Z,20.30
2018-06-12T01:53:06.823Z,20.30
2018-06-12T01:55:34.687Z,20.20
2018-06-12T02:00:30.494Z,20.30
2018-06-12T02:02:58.617Z,20.30
2018-06-12T02:05:26.560Z,20.40
2018-06-12T02:10:22.237Z,20.40
2018-06-12T02:12:50.129Z,20.40
2018-06-12T02:15:18.202Z,20.30
2018-06-12T02:17:46.070Z,20.40
2018-06-12T02:20:13.978Z,20.40
2018-06-12T02:22:41.927Z,20.40
2018-06-12T02:25:09.815Z,20.40
2018-06-12T02:30:05.508Z,20.20
2018-06-12T02:32:34.630Z,20.20
2018-06-12T02:35:02.535Z,20.20
2018-06-12T02:37:30.434Z,20.20
2018-06-12T02:39:58.334Z,20.10
2018-06-12T02:42:26.331Z,20.00
2018-06-12T02:44:54.202Z,20.00
2018-06-12T02:47:22.310Z,20.00
2018-06-12T02:49:50.239Z,19.90
2018-06-12T02:52:18.790Z,19.90
2018-06-12T02:54:46.893Z,19.90
2018-06-12T02:57:14.781Z,19.70
2018-06-12T02:59:42.707Z,19.70
2018-06-12T03:04:38.927Z,19.70
2018-06-12T03:07:06.801Z,19.70
2018-06-12T03:09:34.703Z,19.60
2018-06-12T03:12:02.684Z,19.60
2018-06-12T03:14:30.534Z,19.60
2018-06-12T03:19:27.003Z,19.50
2018-06-12T03:21:54.956Z,19.60
2018-06-12T03:24:22.867Z,19.60
2018-06-12T03:26:50.779Z,19.60
2018-06-12T03:29:19.342Z,19.60
2018-06-12T03:36:43.653Z,19.50
2018-06-12T03:39:11.573Z,19.50
2018-06-12T03:44:07.260Z,19.40
2018-06-12T03:46:35.367Z,19.40
2018-06-12T03:49:03.543Z,19.40
2018-06-12T03:53:59.240Z,19.40
2018-06-12T03:56:27.925Z,19.50
2018-06-12T03:58:55.856Z,19.50
2018-06-12T04:01:24.468Z,19.50
2018-06-12T04:03:52.362Z,19.60
2018-06-12T04:06:20.228Z,19.60
2018-06-12T04:11:15.977Z,19.70
2018-06-12T04:16:11.604Z,19.80
2018-06-12T04:23:38.639Z,20.10
2018-06-12T04:26:07.403Z,20.10
2018-06-12T04:28:35.663Z,20.10
2018-06-12T04:31:03.570Z,20.10
2018-06-12T04:33:33.857Z,20.10
2018-06-12T04:36:02.537Z,20.00
2018-06-12T04:38:30.656Z,20.00
2018-06-12T04:41:01.874Z,20.10
2018-06-12T04:46:01.803Z,20.00
2018-06-12T04:48:36.869Z,20.10
2018-06-12T04:51:04.806Z,20.10
2018-06-12T04:53:43.256Z,20.10
2018-06-12T04:56:23.777Z,20.20
2018-06-12T04:58:56.637Z,20.20
2018-06-12T05:06:31.182Z,20.30
2018-06-12T05:09:01.148Z,20.30
2018-06-12T05:11:30.899Z,20.30
2018-06-12T05:16:33.194Z,20.40
2018-06-12T05:19:06.916Z,20.50
2018-06-12T05:21:36.225Z,20.70
2018-06-12T05:24:07.021Z,20.70
2018-06-12T05:26:37.346Z,20.80
2018-06-12T05:29:06.579Z,20.90
2018-06-12T05:31:34.541Z,21.00
2018-06-12T05:34:03.187Z,21.00
2018-06-12T05:36:33.642Z,21.10
2018-06-12T05:39:02.282Z,21.20
2018-06-12T05:41:31.975Z,21.20
2018-06-12T05:43:59.922Z,21.30
2018-06-12T05:46:27.880Z,21.20
2018-06-12T05:48:59.606Z,21.40
2018-06-12T05:53:58.413Z,21.70
2018-06-12T05:56:26.315Z,21.90
2018-06-12T05:58:58.157Z,21.90
2018-06-12T06:01:27.949Z,21.90
2018-06-12T06:03:56.960Z,21.80
2018-06-12T06:06:39.251Z,21.70
2018-06-12T06:09:11.068Z,21.60
2018-06-12T06:11:39.592Z,21.60
2018-06-12T06:14:11.234Z,21.60
2018-06-12T06:16:39.226Z,21.60
2018-06-12T06:19:07.680Z,21.60
2018-06-12T06:21:36.201Z,21.80
2018-06-12T06:24:05.815Z,22.10
2018-06-12T06:26:34.313Z,22.00
2018-06-12T06:29:04.158Z,22.10
2018-06-12T06:31:32.775Z,22.20
2018-06-12T06:34:02.101Z,22.20
2018-06-12T06:36:30.641Z,22.10
2018-06-12T06:38:59.498Z,22.10
2018-06-12T06:41:27.675Z,22.00
2018-06-12T06:43:55.595Z,22.10
2018-06-12T06:46:24.123Z,22.40
2018-06-12T06:48:51.976Z,22.40
2018-06-12T06:51:20.938Z,22.50
2018-06-12T06:53:48.861Z,22.60
2018-06-12T06:56:17.298Z,22.90
2018-06-12T06:58:45.374Z,22.90
2018-06-12T07:01:13.282Z,22.90
2018-06-12T07:03:41.370Z,22.60
2018-06-12T07:06:10.129Z,22.50
2018-06-12T07:08:38.763Z,22.40
2018-06-12T07:11:07.344Z,22.30
2018-06-12T07:13:35.479Z,22.30
2018-06-12T07:16:03.511Z,22.30
2018-06-12T07:18:31.406Z,22.40
2018-06-12T07:23:32.974Z,22.50
2018-06-12T07:26:01.494Z,22.50
2018-06-12T07:28:29.641Z,22.40
2018-06-12T07:30:57.518Z,22.30
2018-06-12T07:33:25.420Z,22.10
2018-06-12T07:35:53.748Z,22.00
2018-06-12T07:38:22.219Z,21.90
2018-06-12T07:40:50.113Z,22.00
2018-06-12T07:43:18.074Z,21.90
2018-06-12T07:48:14.093Z,22.10
2018-06-12T07:50:42.014Z,22.10
2018-06-12T07:53:09.918Z,22.20
2018-06-12T07:55:38.122Z,22.20
2018-06-12T07:58:06.347Z,22.20
2018-06-12T08:00:34.268Z,22.20
2018-06-12T08:05:30.195Z,22.20
2018-06-12T08:07:58.097Z,22.20
2018-06-12T08:10:26.342Z,22.10
2018-06-12T08:12:54.227Z,22.10
2018-06-12T08:15:22.093Z,22.00
2018-06-12T08:17:50.359Z,22.00
2018-06-12T08:20:18.428Z,22.00
2018-06-12T08:22:46.544Z,22.00
2018-06-12T08:25:14.527Z,22.00
2018-06-12T08:27:42.463Z,22.00
2018-06-12T08:30:10.404Z,22.00
2018-06-12T08:32:39.104Z,22.00
2018-06-12T08:35:06.991Z,22.00
2018-06-12T08:37:34.904Z,21.90
2018-06-12T08:40:02.863Z,21.90
2018-06-12T08:42:30.735Z,22.00
2018-06-12T08:44:58.629Z,22.00
2018-06-12T08:47:26.498Z,22.00
2018-06-12T08:49:55.196Z,22.10
2018-06-12T08:52:24.869Z,22.20
2018-06-12T08:54:53.686Z,22.30
2018-06-12T08:59:49.815Z,22.20
2018-06-12T09:02:17.717Z,22.30
2018-06-12T09:04:45.608Z,22.30
2018-06-12T09:07:13.838Z,22.40
2018-06-12T09:09:42.454Z,22.60
2018-06-12T09:12:10.343Z,22.90
2018-06-12T09:14:38.871Z,23.10
2018-06-12T09:17:06.981Z,23.20
2018-06-12T09:19:34.884Z,23.30
2018-06-12T09:22:02.813Z,23.40
2018-06-12T09:24:31.289Z,23.50
2018-06-12T09:26:59.147Z,23.50
2018-06-12T09:29:26.989Z,23.50
2018-06-12T09:31:55.474Z,23.50
2018-06-12T09:34:24.461Z,23.80
2018-06-12T09:39:20.576Z,24.10
2018-06-12T09:41:48.451Z,24.20
2018-06-12T09:44:16.335Z,24.30
2018-06-12T09:46:44.202Z,24.50
2018-06-12T09:51:39.845Z,24.50
2018-06-12T09:54:08.198Z,24.50
2018-06-12T09:56:36.091Z,24.50
2018-06-12T09:59:04.588Z,24.70
2018-06-12T10:01:32.457Z,24.80
2018-06-12T10:04:00.375Z,24.70
2018-06-12T10:06:28.221Z,24.70
2018-06-12T10:08:56.090Z,24.70
2018-06-12T10:11:23.986Z,24.50
2018-06-12T10:13:51.870Z,24.40
2018-06-12T10:16:19.797Z,24.30
2018-06-12T10:18:47.705Z,24.50
2018-06-12T10:23:43.343Z,24.90
2018-06-12T10:28:39.611Z,25.10
2018-06-12T10:31:07.459Z,25.00
2018-06-12T10:33:35.347Z,24.90
2018-06-12T10:36:03.394Z,25.30
2018-06-12T10:40:59.733Z,25.80
2018-06-12T10:43:27.607Z,25.80
2018-06-12T10:48:23.214Z,25.70
2018-06-12T10:50:51.084Z,26.00
2018-06-12T10:53:19.106Z,25.90
2018-06-12T10:55:46.987Z,25.70
2018-06-12T10:58:14.855Z,25.90
2018-06-12T11:00:42.750Z,25.70
2018-06-12T11:03:10.639Z,25.50
2018-06-12T11:05:38.545Z,25.40
2018-06-12T11:08:06.490Z,25.30
2018-06-12T11:15:30.809Z,25.50
2018-06-12T11:20:26.409Z,25.90
2018-06-12T11:22:54.280Z,26.00
2018-06-12T11:25:22.159Z,25.80
2018-06-12T11:27:50.091Z,25.60
2018-06-12T11:30:17.958Z,25.50
2018-06-12T11:32:45.834Z,25.50
2018-06-12T11:35:13.724Z,25.50
2018-06-12T11:37:41.923Z,25.50
2018-06-12T11:40:10.034Z,25.60
2018-06-12T11:42:37.925Z,25.70
2018-06-12T11:45:05.853Z,25.70
2018-06-12T11:47:33.738Z,25.60
2018-06-12T11:50:01.642Z,25.60
2018-06-12T11:52:29.539Z,25.80
2018-06-12T11:57:25.166Z,26.50
2018-06-12T11:59:53.053Z,26.80
2018-06-12T12:02:20.952Z,26.70
2018-06-12T12:04:49.564Z,26.90
2018-06-12T12:07:17.571Z,27.00
2018-06-12T12:09:45.424Z,27.00
2018-06-12T12:12:13.503Z,26.90
2018-06-12T12:14:42.187Z,26.90
2018-06-12T12:19:37.823Z,26.70
2018-06-12T12:22:06.018Z,26.70
2018-06-12T12:24:33.872Z,26.90
2018-06-12T12:27:01.787Z,26.90
2018-06-12T12:31:57.982Z,26.90
2018-06-12T12:34:25.897Z,27.00
2018-06-12T12:36:53.789Z,26.90
2018-06-12T12:39:21.912Z,26.80
2018-06-12T12:41:50.778Z,27.00
2018-06-12T12:44:18.666Z,27.10
2018-06-12T12:46:46.876Z,27.40
2018-06-12T12:49:14.787Z,27.20
2018-06-12T12:51:42.669Z,27.00
2018-06-12T12:54:10.555Z,26.90
2018-06-12T12:56:38.443Z,27.00
2018-06-12T12:59:06.515Z,27.20
2018-06-12T13:01:34.464Z,27.50
2018-06-12T13:04:02.947Z,27.20
2018-06-12T13:06:31.494Z,27.00
2018-06-12T13:08:59.424Z,26.90
2018-06-12T13:11:27.359Z,27.10
2018-06-12T13:13:55.261Z,27.40
2018-06-12T13:18:51.726Z,27.70
2018-06-12T13:21:20.025Z,27.80
2018-06-12T13:23:49.085Z,27.90
2018-06-12T13:26:16.932Z,27.70
2018-06-12T13:28:45.374Z,27.60
2018-06-12T13:31:13.346Z,27.30
2018-06-12T13:33:41.273Z,27.20
2018-06-12T13:36:09.969Z,27.40
2018-06-12T13:38:37.897Z,27.70
2018-06-12T13:41:05.871Z,27.80
2018-06-12T13:43:33.738Z,27.80
2018-06-12T13:46:02.200Z,27.70
2018-06-12T13:48:30.082Z,27.80
2018-06-12T13:50:57.995Z,27.90
2018-06-12T13:55:54.669Z,27.50
2018-06-12T13:58:23.461Z,27.20
2018-06-12T14:00:51.444Z,27.20
2018-06-12T14:03:20.336Z,27.30
2018-06-12T14:05:48.254Z,27.30
2018-06-12T14:13:12.794Z,27.10
2018-06-12T14:15:40.989Z,27.20
2018-06-12T14:18:09.142Z,27.30
2018-06-12T14:20:37.106Z,27.60
2018-06-12T14:25:33.483Z,27.50
2018-06-12T14:28:02.222Z,27.20
2018-06-12T14:30:30.711Z,27.00
2018-06-12T14:32:58.620Z,26.90
2018-06-12T14:35:26.699Z,26.70
2018-06-12T14:37:55.559Z,26.50
2018-06-12T14:40:24.011Z,26.40
2018-06-12T14:42:52.015Z,26.50
2018-06-12T14:45:19.917Z,26.50
2018-06-12T14:47:48.338Z,26.60
2018-06-12T14:50:16.665Z,26.70
2018-06-12T14:52:44.534Z,26.70
2018-06-12T14:55:12.414Z,26.90
2018-06-12T14:57:40.267Z,26.90
2018-06-12T15:00:08.701Z,26.80
2018-06-12T15:05:04.307Z,26.50
2018-06-12T15:07:32.737Z,26.60
2018-06-12T15:10:01.020Z,26.50
2018-06-12T15:17:25.740Z,26.50
2018-06-12T15:22:22.140Z,26.50
2018-06-12T15:24:50.217Z,26.50
2018-06-12T15:27:18.184Z,26.30
2018-06-12T15:29:46.043Z,26.20
2018-06-12T15:32:14.654Z,26.10
2018-06-12T15:34:48.737Z,26.10
2018-06-12T15:37:17.707Z,26.00
2018-06-12T15:39:45.578Z,25.90
2018-06-12T15:42:14.049Z,25.80
2018-06-12T15:47:10.243Z,25.80
2018-06-12T15:49:38.735Z,25.70
2018-06-12T15:52:06.617Z,25.60
2018-06-12T15:54:34.486Z,25.60
2018-06-12T15:59:31.540Z,25.50
2018-06-12T16:01:59.940Z,25.40
2018-06-12T16:04:28.407Z,25.30
2018-06-12T16:06:56.820Z,25.30
2018-06-12T16:09:24.669Z,25.30
2018-06-12T16:16:48.067Z,25.20
2018-06-12T16:24:13.870Z,25.00
2018-06-12T16:26:41.795Z,24.90
2018-06-12T16:29:10.082Z,24.80
2018-06-12T16:31:38.201Z,24.70
2018-06-12T16:34:06.320Z,24.70
2018-06-12T16:36:34.271Z,24.60
2018-06-12T16:41:30.262Z,24.50
2018-06-12T16:43:59.544Z,24.50
2018-06-12T16:46:27.433Z,24.30
2018-06-12T16:48:55.388Z,23.90
2018-06-12T16:51:23.647Z,23.40
2018-06-12T16:53:52.125Z,22.00
2018-06-12T16:56:21.774Z,21.00
2018-06-12T17:01:18.036Z,20.30
2018-06-12T17:03:46.230Z,20.10
2018-06-12T17:06:14.149Z,19.90
2018-06-12T17:08:42.044Z,19.70
2018-06-12T17:11:09.932Z,19.60
2018-06-12T17:13:39.537Z,19.60
2018-06-12T17:18:38.976Z,19.60
2018-06-12T17:21:11.728Z,19.50
2018-06-12T17:23:48.456Z,19.50
2018-06-12T17:26:23.261Z,19.60
2018-06-12T17:29:08.996Z,19.60
2018-06-12T17:34:05.462Z,19.40
2018-06-12T17:39:17.236Z,19.30
2018-06-12T17:41:51.325Z,19.20
2018-06-12T17:44:22.682Z,19.30
2018-06-12T17:46:51.346Z,19.40
2018-06-12T17:51:53.826Z,19.40
2018-06-12T17:54:21.764Z,19.40
2018-06-12T17:56:50.111Z,19.40
2018-06-12T17:59:19.868Z,19.40
2018-06-12T18:01:50.899Z,19.40
2018-06-12T18:04:27.679Z,19.50
2018-06-12T18:07:00.731Z,19.40
2018-06-12T18:12:02.942Z,19.50
2018-06-12T18:14:31.455Z,19.50
2018-06-12T18:17:03.638Z,19.40
2018-06-12T18:19:34.569Z,19.40
2018-06-12T18:22:06.115Z,19.50
2018-06-12T18:27:07.917Z,19.40
2018-06-12T18:29:37.788Z,19.40
2018-06-12T18:32:09.549Z,19.40
2018-06-12T18:34:40.670Z,19.40
2018-06-12T18:37:12.887Z,19.40
2018-06-12T18:39:43.349Z,19.40
2018-06-12T18:42:14.550Z,19.50
2018-06-12T18:44:46.378Z,19.60
2018-06-12T18:47:16.074Z,19.70
2018-06-12T18:49:45.428Z,19.70
2018-06-12T18:52:19.287Z,19.70
2018-06-12T18:54:51.238Z,19.80
2018-06-12T18:59:52.482Z,19.70
2018-06-12T19:02:25.333Z,19.70
2018-06-12T19:05:01.153Z,19.60
2018-06-12T19:07:33.983Z,19.60
2018-06-12T19:10:01.998Z,19.50
2018-06-12T19:12:32.638Z,19.40
2018-06-12T19:17:38.449Z,19.30
2018-06-12T19:20:06.819Z,19.30
2018-06-12T19:22:40.352Z,19.30
2018-06-12T19:25:08.249Z,19.30
2018-06-12T19:27:36.239Z,19.20
2018-06-12T19:30:04.160Z,19.20
2018-06-12T19:32:35.756Z,19.30
2018-06-12T19:35:11.257Z,19.30
2018-06-12T19:37:44.275Z,19.30
2018-06-12T19:42:54.660Z,19.30
2018-06-12T19:48:02.231Z,19.30
2018-06-12T19:50:36.899Z,19.30
2018-06-12T19:53:09.193Z,19.40
2018-06-12T19:55:49.176Z,19.40
2018-06-12T19:58:21.369Z,19.40
2018-06-12T20:00:50.886Z,19.40
2018-06-12T20:03:25.005Z,19.30
2018-06-12T20:05:58.367Z,19.40
2018-06-12T20:08:33.471Z,19.40
2018-06-12T20:11:11.118Z,19.30
2018-06-12T20:13:42.689Z,19.30
2018-06-12T20:16:17.174Z,19.40
2018-06-12T20:18:51.680Z,19.30
2018-06-12T20:21:24.381Z,19.20
2018-06-12T20:23:55.130Z,19.20
2018-06-12T20:26:23.032Z,19.20
2018-06-12T20:28:50.924Z,19.20
2018-06-12T20:33:59.794Z,19.20
2018-06-12T20:36:27.696Z,19.20
2018-06-12T20:39:04.071Z,19.00
2018-06-12T20:41:32.026Z,19.10
2018-06-12T20:44:06.629Z,19.10
2018-06-12T20:46:40.814Z,19.00
2018-06-12T20:51:43.120Z,19.00
2018-06-12T20:54:11.034Z,18.90
2018-06-12T20:56:43.902Z,18.90
2018-06-12T21:01:56.407Z,18.80
2018-06-12T21:04:27.369Z,18.80
2018-06-12T21:11:52.247Z,18.80
2018-06-12T21:16:47.981Z,19.00
2018-06-12T21:19:17.086Z,19.00
2018-06-12T21:21:50.630Z,19.00
2018-06-12T21:24:29.837Z,19.00
2018-06-12T21:26:57.765Z,19.00
2018-06-12T21:29:27.605Z,19.00
2018-06-12T21:31:57.268Z,18.90
2018-06-12T21:39:37.826Z,18.90
2018-06-12T21:42:13.736Z,18.90
2018-06-12T21:47:20.618Z,19.00
2018-06-12T21:49:48.502Z,18.90
2018-06-12T21:52:16.355Z,18.90
2018-06-12T21:54:49.847Z,18.90
2018-06-12T21:57:19.166Z,18.90
2018-06-12T21:59:55.866Z,19.00
2018-06-12T22:02:30.962Z,19.00
2018-06-12T22:05:08.447Z,19.00
2018-06-12T22:07:50.013Z,19.00
2018-06-12T22:10:28.986Z,19.00
2018-06-12T22:15:33.673Z,19.00
2018-06-12T22:18:01.553Z,19.00
2018-06-12T22:20:29.439Z,19.10
2018-06-12T22:22:57.323Z,19.10
2018-06-12T22:25:32.126Z,19.10
2018-06-12T22:28:00.988Z,19.10
2018-06-12T22:32:56.697Z,19.10
2018-06-12T22:35:24.527Z,19.10
2018-06-12T22:37:52.430Z,19.10
2018-06-12T22:40:20.289Z,19.10
2018-06-12T22:42:48.920Z,19.00
2018-06-12T22:45:16.784Z,19.00
2018-06-12T22:47:45.254Z,18.90
2018-06-12T22:52:40.810Z,18.80
2018-06-12T22:55:08.654Z,18.80
2018-06-12T22:57:36.500Z,18.70
2018-06-12T23:00:20.183Z,18.70
2018-06-12T23:02:48.483Z,18.80
2018-06-12T23:05:16.355Z,18.80
2018-06-12T23:07:45.634Z,18.80
2018-06-12T23:10:14.144Z,18.70
2018-06-12T23:12:41.963Z,18.60
2018-06-12T23:25:06.717Z,18.60
2018-06-12T23:27:34.574Z,18.40
2018-06-12T23:32:30.250Z,18.30
2018-06-12T23:34:58.706Z,18.30
2018-06-12T23:37:26.601Z,18.30
2018-06-12T23:39:54.468Z,18.30
2018-06-12T23:42:22.865Z,18.40
2018-06-12T23:44:57.046Z,18.40
2018-06-12T23:47:24.898Z,18.40
2018-06-12T23:49:52.761Z,18.50
2018-06-12T23:52:20.585Z,18.60
2018-06-12T23:54:48.487Z,18.80
2018-06-12T23:57:17.334Z,18.90
2018-06-12T23:59:45.216Z,18.90
